sensor_id;sensor_type;location;lat;lon;timestamp;noise_LAeq;noise_LA_min;noise_LA_max;noise_LA01;noise_LA95
76339;Laerm;26644;50.248;19.032;2023-06-14T00:01:03;45.12;41.23;52.22;;
76339;Laerm;26644;50.248;19.032;2023-06-14T00:04:12;46.36;42.59;52.96;;
76339;Laerm;26644;50.248;19.032;2023-06-14T00:07:20;45.84;42.13;50.83;;
76339;Laerm;26644;50.248;19.032;2023-06-14T00:10:26;45.54;41.96;49.90;;
76339;Laerm;26644;50.248;19.032;2023-06-14T00:13:33;46.51;41.74;61.47;;
76339;Laerm;26644;50.248;19.032;2023-06-14T00:16:39;48.48;42.26;59.84;;
76339;Laerm;26644;50.248;19.032;2023-06-14T00:19:46;50.13;42.75;66.65;;
76339;Laerm;26644;50.248;19.032;2023-06-14T00:22:52;53.27;43.01;63.94;;
76339;Laerm;26644;50.248;19.032;2023-06-14T00:25:57;45.19;41.55;49.42;;
76339;Laerm;26644;50.248;19.032;2023-06-14T00:29:02;46.31;41.36;50.51;;
76339;Laerm;26644;50.248;19.032;2023-06-14T00:32:08;46.40;41.89;54.41;;
76339;Laerm;26644;50.248;19.032;2023-06-14T00:35:16;45.87;42.11;55.47;;
76339;Laerm;26644;50.248;19.032;2023-06-14T00:38:21;45.35;41.81;55.59;;
76339;Laerm;26644;50.248;19.032;2023-06-14T00:41:27;45.65;41.91;50.56;;
76339;Laerm;26644;50.248;19.032;2023-06-14T00:44:32;45.07;40.03;51.98;;
76339;Laerm;26644;50.248;19.032;2023-06-14T00:47:41;45.90;41.77;51.87;;
76339;Laerm;26644;50.248;19.032;2023-06-14T00:50:51;46.73;41.98;53.86;;
76339;Laerm;26644;50.248;19.032;2023-06-14T00:53:57;46.19;42.30;51.92;;
76339;Laerm;26644;50.248;19.032;2023-06-14T00:57:02;46.72;41.47;52.58;;
76339;Laerm;26644;50.248;19.032;2023-06-14T01:00:10;46.83;42.80;51.94;;
76339;Laerm;26644;50.248;19.032;2023-06-14T01:03:16;46.20;41.66;51.02;;
76339;Laerm;26644;50.248;19.032;2023-06-14T01:06:40;46.71;42.03;52.95;;
76339;Laerm;26644;50.248;19.032;2023-06-14T01:10:14;47.19;42.86;53.18;;
76339;Laerm;26644;50.248;19.032;2023-06-14T01:13:33;49.21;43.67;65.35;;
76339;Laerm;26644;50.248;19.032;2023-06-14T01:16:39;47.97;44.26;52.57;;
76339;Laerm;26644;50.248;19.032;2023-06-14T01:19:45;47.88;44.24;51.98;;
76339;Laerm;26644;50.248;19.032;2023-06-14T01:22:54;47.02;43.22;52.30;;
76339;Laerm;26644;50.248;19.032;2023-06-14T01:26:01;46.90;42.86;51.22;;
76339;Laerm;26644;50.248;19.032;2023-06-14T01:29:08;47.41;43.03;51.80;;
76339;Laerm;26644;50.248;19.032;2023-06-14T01:32:14;47.02;43.27;52.46;;
76339;Laerm;26644;50.248;19.032;2023-06-14T01:35:19;47.17;41.71;52.93;;
76339;Laerm;26644;50.248;19.032;2023-06-14T01:38:30;46.57;41.99;58.51;;
76339;Laerm;26644;50.248;19.032;2023-06-14T01:41:36;46.11;41.50;51.97;;
76339;Laerm;26644;50.248;19.032;2023-06-14T01:44:44;47.04;41.54;52.54;;
76339;Laerm;26644;50.248;19.032;2023-06-14T01:47:49;48.45;43.40;54.60;;
76339;Laerm;26644;50.248;19.032;2023-06-14T01:50:55;47.23;43.33;51.55;;
76339;Laerm;26644;50.248;19.032;2023-06-14T01:54:03;48.29;43.61;53.10;;
76339;Laerm;26644;50.248;19.032;2023-06-14T01:57:08;47.69;43.75;52.19;;
76339;Laerm;26644;50.248;19.032;2023-06-14T02:00:15;48.56;44.35;52.81;;
76339;Laerm;26644;50.248;19.032;2023-06-14T02:03:21;49.23;44.97;53.94;;
76339;Laerm;26644;50.248;19.032;2023-06-14T02:06:27;48.62;44.95;54.19;;
76339;Laerm;26644;50.248;19.032;2023-06-14T02:09:36;48.62;44.20;56.73;;
76339;Laerm;26644;50.248;19.032;2023-06-14T02:12:41;49.87;44.69;56.70;;
76339;Laerm;26644;50.248;19.032;2023-06-14T02:15:47;48.42;43.84;53.83;;
76339;Laerm;26644;50.248;19.032;2023-06-14T02:18:56;48.50;44.52;54.23;;
76339;Laerm;26644;50.248;19.032;2023-06-14T02:22:03;49.27;44.61;58.76;;
76339;Laerm;26644;50.248;19.032;2023-06-14T02:25:12;49.08;45.21;58.65;;
76339;Laerm;26644;50.248;19.032;2023-06-14T02:28:18;49.25;44.73;56.73;;
76339;Laerm;26644;50.248;19.032;2023-06-14T02:31:23;49.13;45.06;54.63;;
76339;Laerm;26644;50.248;19.032;2023-06-14T02:34:29;49.39;45.38;57.16;;
76339;Laerm;26644;50.248;19.032;2023-06-14T02:37:34;48.69;44.96;58.29;;
76339;Laerm;26644;50.248;19.032;2023-06-14T02:40:42;49.34;46.06;55.33;;
76339;Laerm;26644;50.248;19.032;2023-06-14T02:43:47;49.83;45.33;55.64;;
76339;Laerm;26644;50.248;19.032;2023-06-14T02:46:53;48.72;45.20;54.79;;
76339;Laerm;26644;50.248;19.032;2023-06-14T02:49:58;49.20;45.48;55.75;;
76339;Laerm;26644;50.248;19.032;2023-06-14T02:53:04;49.23;44.40;55.63;;
76339;Laerm;26644;50.248;19.032;2023-06-14T02:56:11;48.46;43.98;53.25;;
76339;Laerm;26644;50.248;19.032;2023-06-14T02:59:20;48.17;43.77;52.81;;
76339;Laerm;26644;50.248;19.032;2023-06-14T03:02:29;48.62;43.02;56.88;;
76339;Laerm;26644;50.248;19.032;2023-06-14T03:05:35;48.19;44.56;60.87;;
76339;Laerm;26644;50.248;19.032;2023-06-14T03:08:43;49.92;45.55;62.08;;
76339;Laerm;26644;50.248;19.032;2023-06-14T03:11:55;49.94;44.77;67.03;;
76339;Laerm;26644;50.248;19.032;2023-06-14T03:14:59;49.57;45.55;60.61;;
76339;Laerm;26644;50.248;19.032;2023-06-14T03:18:08;48.84;45.19;57.02;;
76339;Laerm;26644;50.248;19.032;2023-06-14T03:21:14;49.65;45.52;56.79;;
76339;Laerm;26644;50.248;19.032;2023-06-14T03:24:21;50.46;47.07;55.50;;
76339;Laerm;26644;50.248;19.032;2023-06-14T03:27:29;49.58;46.44;53.04;;
76339;Laerm;26644;50.248;19.032;2023-06-14T03:30:35;49.57;45.63;61.21;;
76339;Laerm;26644;50.248;19.032;2023-06-14T03:33:40;49.25;45.10;61.45;;
76339;Laerm;26644;50.248;19.032;2023-06-14T03:36:46;50.11;46.52;58.46;;
76339;Laerm;26644;50.248;19.032;2023-06-14T03:39:51;49.88;46.00;61.82;;
76339;Laerm;26644;50.248;19.032;2023-06-14T03:43:02;50.80;46.16;65.54;;
76339;Laerm;26644;50.248;19.032;2023-06-14T03:46:07;53.22;46.70;68.58;;
76339;Laerm;26644;50.248;19.032;2023-06-14T03:49:13;50.12;46.00;58.86;;
76339;Laerm;26644;50.248;19.032;2023-06-14T03:52:20;50.64;46.62;54.15;;
76339;Laerm;26644;50.248;19.032;2023-06-14T03:55:26;49.92;46.56;53.71;;
76339;Laerm;26644;50.248;19.032;2023-06-14T03:58:37;50.05;47.13;53.88;;
76339;Laerm;26644;50.248;19.032;2023-06-14T04:01:42;50.03;46.27;55.96;;
76339;Laerm;26644;50.248;19.032;2023-06-14T04:04:50;49.31;44.27;54.96;;
76339;Laerm;26644;50.248;19.032;2023-06-14T04:07:57;49.90;45.44;59.95;;
76339;Laerm;26644;50.248;19.032;2023-06-14T04:11:02;51.60;47.18;68.71;;
76339;Laerm;26644;50.248;19.032;2023-06-14T04:14:11;50.73;47.08;62.97;;
76339;Laerm;26644;50.248;19.032;2023-06-14T04:17:15;50.89;47.35;62.69;;
76339;Laerm;26644;50.248;19.032;2023-06-14T04:20:22;51.28;47.70;57.33;;
76339;Laerm;26644;50.248;19.032;2023-06-14T04:23:27;51.27;48.12;55.17;;
76339;Laerm;26644;50.248;19.032;2023-06-14T04:26:33;51.94;48.91;56.55;;
76339;Laerm;26644;50.248;19.032;2023-06-14T04:29:40;51.34;48.35;55.76;;
76339;Laerm;26644;50.248;19.032;2023-06-14T04:32:49;52.31;48.45;57.43;;
76339;Laerm;26644;50.248;19.032;2023-06-14T04:35:55;51.62;48.47;60.82;;
76339;Laerm;26644;50.248;19.032;2023-06-14T04:39:03;51.43;47.37;58.49;;
76339;Laerm;26644;50.248;19.032;2023-06-14T04:42:08;51.96;48.47;60.59;;
76339;Laerm;26644;50.248;19.032;2023-06-14T04:45:18;51.84;48.46;58.14;;
76339;Laerm;26644;50.248;19.032;2023-06-14T04:48:23;52.22;48.06;61.40;;
76339;Laerm;26644;50.248;19.032;2023-06-14T04:51:30;52.24;49.05;71.69;;
76339;Laerm;26644;50.248;19.032;2023-06-14T04:54:36;52.03;48.26;63.61;;
76339;Laerm;26644;50.248;19.032;2023-06-14T04:57:46;51.82;48.72;57.02;;
76339;Laerm;26644;50.248;19.032;2023-06-14T05:00:58;51.87;48.87;58.08;;
76339;Laerm;26644;50.248;19.032;2023-06-14T05:04:05;51.81;48.71;61.95;;
76339;Laerm;26644;50.248;19.032;2023-06-14T05:07:10;51.95;48.59;65.04;;
76339;Laerm;26644;50.248;19.032;2023-06-14T05:10:18;51.69;48.51;61.59;;
76339;Laerm;26644;50.248;19.032;2023-06-14T05:13:23;52.02;48.97;56.20;;
76339;Laerm;26644;50.248;19.032;2023-06-14T05:16:34;52.44;49.45;64.34;;
76339;Laerm;26644;50.248;19.032;2023-06-14T05:19:39;54.98;49.83;76.33;;
76339;Laerm;26644;50.248;19.032;2023-06-14T05:22:45;58.14;48.37;78.13;;
76339;Laerm;26644;50.248;19.032;2023-06-14T05:25:51;51.96;49.04;63.58;;
76339;Laerm;26644;50.248;19.032;2023-06-14T05:28:57;52.71;49.13;61.10;;
76339;Laerm;26644;50.248;19.032;2023-06-14T05:32:06;52.93;49.28;60.79;;
76339;Laerm;26644;50.248;19.032;2023-06-14T05:35:12;52.15;49.18;62.84;;
76339;Laerm;26644;50.248;19.032;2023-06-14T05:38:17;53.46;49.11;73.27;;
76339;Laerm;26644;50.248;19.032;2023-06-14T05:41:23;53.13;49.77;62.26;;
76339;Laerm;26644;50.248;19.032;2023-06-14T05:44:28;55.00;49.82;68.26;;
76339;Laerm;26644;50.248;19.032;2023-06-14T05:47:36;53.90;50.39;71.14;;
76339;Laerm;26644;50.248;19.032;2023-06-14T05:50:41;52.86;49.93;64.10;;
76339;Laerm;26644;50.248;19.032;2023-06-14T05:53:47;52.53;49.34;63.85;;
76339;Laerm;26644;50.248;19.032;2023-06-14T05:56:52;52.95;49.06;65.83;;
76339;Laerm;26644;50.248;19.032;2023-06-14T05:59:57;52.65;49.30;63.06;;
76339;Laerm;26644;50.248;19.032;2023-06-14T06:03:05;53.97;49.78;68.24;;
76339;Laerm;26644;50.248;19.032;2023-06-14T06:06:12;56.23;48.22;78.86;;
76339;Laerm;26644;50.248;19.032;2023-06-14T06:09:18;52.57;48.63;64.59;;
76339;Laerm;26644;50.248;19.032;2023-06-14T06:12:23;52.25;48.64;64.81;;
76339;Laerm;26644;50.248;19.032;2023-06-14T06:15:28;53.11;49.54;70.53;;
76339;Laerm;26644;50.248;19.032;2023-06-14T06:18:36;52.18;48.88;61.92;;
76339;Laerm;26644;50.248;19.032;2023-06-14T06:21:41;53.06;49.52;62.56;;
76339;Laerm;26644;50.248;19.032;2023-06-14T06:24:46;56.00;49.44;68.79;;
76339;Laerm;26644;50.248;19.032;2023-06-14T06:27:51;52.70;47.95;70.96;;
76339;Laerm;26644;50.248;19.032;2023-06-14T06:30:57;53.54;49.12;71.46;;
76339;Laerm;26644;50.248;19.032;2023-06-14T06:34:04;53.22;49.43;63.29;;
76339;Laerm;26644;50.248;19.032;2023-06-14T06:37:10;52.40;49.48;62.62;;
76339;Laerm;26644;50.248;19.032;2023-06-14T06:40:15;52.88;49.67;66.37;;
76339;Laerm;26644;50.248;19.032;2023-06-14T06:43:20;52.85;49.11;60.68;;
76339;Laerm;26644;50.248;19.032;2023-06-14T06:46:25;52.36;48.31;64.25;;
76339;Laerm;26644;50.248;19.032;2023-06-14T06:49:33;52.44;48.82;61.35;;
76339;Laerm;26644;50.248;19.032;2023-06-14T06:52:38;52.61;48.78;62.26;;
76339;Laerm;26644;50.248;19.032;2023-06-14T06:55:44;56.83;49.06;73.08;;
76339;Laerm;26644;50.248;19.032;2023-06-14T06:58:48;52.46;49.12;58.02;;
76339;Laerm;26644;50.248;19.032;2023-06-14T07:01:54;52.66;48.89;58.97;;
76339;Laerm;26644;50.248;19.032;2023-06-14T07:05:01;52.77;49.06;60.23;;
76339;Laerm;26644;50.248;19.032;2023-06-14T07:08:07;52.69;48.23;63.21;;
76339;Laerm;26644;50.248;19.032;2023-06-14T07:11:12;52.93;48.33;61.18;;
76339;Laerm;26644;50.248;19.032;2023-06-14T07:14:18;52.42;48.32;61.80;;
76339;Laerm;26644;50.248;19.032;2023-06-14T07:17:24;52.65;48.69;60.83;;
76339;Laerm;26644;50.248;19.032;2023-06-14T07:20:33;52.29;48.83;70.35;;
76339;Laerm;26644;50.248;19.032;2023-06-14T07:23:39;52.97;48.85;69.19;;
76339;Laerm;26644;50.248;19.032;2023-06-14T07:26:45;52.74;49.56;60.14;;
76339;Laerm;26644;50.248;19.032;2023-06-14T07:29:50;51.91;48.66;57.63;;
76339;Laerm;26644;50.248;19.032;2023-06-14T07:32:56;51.94;48.62;57.07;;
76339;Laerm;26644;50.248;19.032;2023-06-14T07:36:03;52.07;48.71;57.14;;
76339;Laerm;26644;50.248;19.032;2023-06-14T07:39:09;51.69;47.67;63.97;;
76339;Laerm;26644;50.248;19.032;2023-06-14T07:42:13;52.24;48.23;59.81;;
76339;Laerm;26644;50.248;19.032;2023-06-14T07:45:19;51.80;48.22;58.56;;
76339;Laerm;26644;50.248;19.032;2023-06-14T07:48:24;51.90;48.49;55.09;;
76339;Laerm;26644;50.248;19.032;2023-06-14T07:51:32;52.17;48.26;56.50;;
76339;Laerm;26644;50.248;19.032;2023-06-14T07:54:37;52.95;48.60;64.30;;
76339;Laerm;26644;50.248;19.032;2023-06-14T07:57:43;52.11;48.21;57.57;;
76339;Laerm;26644;50.248;19.032;2023-06-14T08:00:48;52.44;49.21;66.03;;
76339;Laerm;26644;50.248;19.032;2023-06-14T08:03:54;53.13;49.33;59.46;;
76339;Laerm;26644;50.248;19.032;2023-06-14T08:07:01;53.09;49.18;61.81;;
76339;Laerm;26644;50.248;19.032;2023-06-14T08:10:08;53.42;49.42;62.38;;
76339;Laerm;26644;50.248;19.032;2023-06-14T08:13:13;52.28;48.38;60.57;;
76339;Laerm;26644;50.248;19.032;2023-06-14T08:16:18;53.11;49.30;62.34;;
76339;Laerm;26644;50.248;19.032;2023-06-14T08:19:23;53.79;49.53;59.94;;
76339;Laerm;26644;50.248;19.032;2023-06-14T08:22:31;52.73;48.69;64.34;;
76339;Laerm;26644;50.248;19.032;2023-06-14T08:25:37;51.63;48.76;59.48;;
76339;Laerm;26644;50.248;19.032;2023-06-14T08:28:43;54.54;49.26;70.52;;
76339;Laerm;26644;50.248;19.032;2023-06-14T08:31:48;52.84;48.71;59.68;;
76339;Laerm;26644;50.248;19.032;2023-06-14T08:34:53;52.14;48.23;57.34;;
76339;Laerm;26644;50.248;19.032;2023-06-14T08:38:02;52.47;49.35;58.84;;
76339;Laerm;26644;50.248;19.032;2023-06-14T08:41:11;51.61;47.64;59.24;;
76339;Laerm;26644;50.248;19.032;2023-06-14T08:44:18;54.06;49.18;76.05;;
76339;Laerm;26644;50.248;19.032;2023-06-14T08:47:26;54.30;49.08;63.15;;
76339;Laerm;26644;50.248;19.032;2023-06-14T08:50:41;52.36;48.70;65.07;;
76339;Laerm;26644;50.248;19.032;2023-06-14T08:53:54;52.88;47.92;63.68;;
76339;Laerm;26644;50.248;19.032;2023-06-14T08:57:00;53.12;48.66;69.23;;
76339;Laerm;26644;50.248;19.032;2023-06-14T09:00:08;52.89;49.56;63.05;;
76339;Laerm;26644;50.248;19.032;2023-06-14T09:03:14;52.59;48.89;60.09;;
76339;Laerm;26644;50.248;19.032;2023-06-14T09:06:21;53.48;49.21;70.13;;
76339;Laerm;26644;50.248;19.032;2023-06-14T09:09:28;53.01;49.09;62.57;;
76339;Laerm;26644;50.248;19.032;2023-06-14T09:12:34;52.62;48.44;60.31;;
76339;Laerm;26644;50.248;19.032;2023-06-14T09:15:40;52.39;48.98;64.10;;
76339;Laerm;26644;50.248;19.032;2023-06-14T09:18:47;52.39;49.13;58.31;;
76339;Laerm;26644;50.248;19.032;2023-06-14T09:21:52;52.13;48.98;57.23;;
76339;Laerm;26644;50.248;19.032;2023-06-14T09:25:02;52.49;48.65;64.16;;
76339;Laerm;26644;50.248;19.032;2023-06-14T09:28:07;52.30;48.64;60.60;;
76339;Laerm;26644;50.248;19.032;2023-06-14T09:31:15;52.81;49.69;62.56;;
76339;Laerm;26644;50.248;19.032;2023-06-14T09:34:21;52.32;48.10;65.35;;
76339;Laerm;26644;50.248;19.032;2023-06-14T09:37:29;52.36;48.80;57.59;;
76339;Laerm;26644;50.248;19.032;2023-06-14T09:40:38;53.11;49.13;64.08;;
76339;Laerm;26644;50.248;19.032;2023-06-14T09:43:44;52.76;49.45;58.61;;
76339;Laerm;26644;50.248;19.032;2023-06-14T09:46:53;52.31;49.41;56.10;;
76339;Laerm;26644;50.248;19.032;2023-06-14T09:50:01;53.05;49.71;61.38;;
76339;Laerm;26644;50.248;19.032;2023-06-14T09:53:10;54.08;49.56;62.93;;
76339;Laerm;26644;50.248;19.032;2023-06-14T09:56:27;53.51;47.84;69.29;;
76339;Laerm;26644;50.248;19.032;2023-06-14T09:59:33;52.47;48.40;57.88;;
76339;Laerm;26644;50.248;19.032;2023-06-14T10:02:49;52.41;48.60;59.27;;
76339;Laerm;26644;50.248;19.032;2023-06-14T10:06:08;52.65;48.81;63.06;;
76339;Laerm;26644;50.248;19.032;2023-06-14T10:09:14;53.06;49.55;61.06;;
76339;Laerm;26644;50.248;19.032;2023-06-14T10:12:21;53.11;49.23;56.94;;
76339;Laerm;26644;50.248;19.032;2023-06-14T10:15:38;53.84;48.86;66.52;;
76339;Laerm;26644;50.248;19.032;2023-06-14T10:19:01;54.72;49.88;66.28;;
76339;Laerm;26644;50.248;19.032;2023-06-14T10:22:18;54.11;48.89;70.44;;
76339;Laerm;26644;50.248;19.032;2023-06-14T10:25:28;53.01;49.18;68.19;;
76339;Laerm;26644;50.248;19.032;2023-06-14T10:28:38;54.15;48.63;73.04;;
76339;Laerm;26644;50.248;19.032;2023-06-14T10:31:44;51.43;48.54;60.01;;
76339;Laerm;26644;50.248;19.032;2023-06-14T10:34:56;52.75;49.30;62.43;;
76339;Laerm;26644;50.248;19.032;2023-06-14T10:38:08;52.42;47.89;60.75;;
76339;Laerm;26644;50.248;19.032;2023-06-14T10:41:18;52.32;48.84;63.43;;
76339;Laerm;26644;50.248;19.032;2023-06-14T10:44:43;53.53;49.04;74.04;;
76339;Laerm;26644;50.248;19.032;2023-06-14T10:47:49;53.11;48.31;66.91;;
76339;Laerm;26644;50.248;19.032;2023-06-14T10:51:00;52.12;48.83;62.13;;
76339;Laerm;26644;50.248;19.032;2023-06-14T10:54:12;52.86;49.44;65.82;;
76339;Laerm;26644;50.248;19.032;2023-06-14T10:57:17;52.00;48.84;58.03;;
76339;Laerm;26644;50.248;19.032;2023-06-14T11:00:28;52.51;48.65;68.54;;
76339;Laerm;26644;50.248;19.032;2023-06-14T11:03:51;51.66;47.90;58.27;;
76339;Laerm;26644;50.248;19.032;2023-06-14T11:07:30;52.43;49.01;62.06;;
76339;Laerm;26644;50.248;19.032;2023-06-14T11:10:38;52.51;49.22;59.99;;
76339;Laerm;26644;50.248;19.032;2023-06-14T11:13:46;53.84;49.04;61.03;;
76339;Laerm;26644;50.248;19.032;2023-06-14T11:16:53;52.76;49.86;59.48;;
76339;Laerm;26644;50.248;19.032;2023-06-14T11:20:08;53.30;48.95;71.65;;
76339;Laerm;26644;50.248;19.032;2023-06-14T11:23:17;53.91;49.95;71.43;;
76339;Laerm;26644;50.248;19.032;2023-06-14T11:26:26;52.54;49.45;64.86;;
76339;Laerm;26644;50.248;19.032;2023-06-14T11:29:31;62.94;49.95;79.94;;
76339;Laerm;26644;50.248;19.032;2023-06-14T11:32:40;52.08;48.78;67.09;;
76339;Laerm;26644;50.248;19.032;2023-06-14T11:35:45;53.18;49.75;65.39;;
76339;Laerm;26644;50.248;19.032;2023-06-14T11:38:58;52.70;49.43;63.99;;
76339;Laerm;26644;50.248;19.032;2023-06-14T11:42:05;52.07;48.04;57.99;;
76339;Laerm;26644;50.248;19.032;2023-06-14T11:45:12;52.87;48.94;64.95;;
76339;Laerm;26644;50.248;19.032;2023-06-14T11:48:19;52.87;49.62;62.90;;
76339;Laerm;26644;50.248;19.032;2023-06-14T11:51:25;53.25;50.10;63.28;;
76339;Laerm;26644;50.248;19.032;2023-06-14T11:54:31;53.34;49.76;64.87;;
76339;Laerm;26644;50.248;19.032;2023-06-14T11:57:37;53.01;49.63;64.40;;
76339;Laerm;26644;50.248;19.032;2023-06-14T12:00:42;52.74;49.21;58.64;;
76339;Laerm;26644;50.248;19.032;2023-06-14T12:03:54;52.42;49.22;56.75;;
76339;Laerm;26644;50.248;19.032;2023-06-14T12:07:09;53.86;49.39;74.58;;
76339;Laerm;26644;50.248;19.032;2023-06-14T12:10:17;51.98;48.69;60.03;;
76339;Laerm;26644;50.248;19.032;2023-06-14T12:13:22;52.79;49.59;58.98;;
76339;Laerm;26644;50.248;19.032;2023-06-14T12:16:33;53.21;48.82;61.38;;
76339;Laerm;26644;50.248;19.032;2023-06-14T12:19:48;58.97;50.07;75.67;;
76339;Laerm;26644;50.248;19.032;2023-06-14T12:22:56;55.18;48.92;78.42;;
76339;Laerm;26644;50.248;19.032;2023-06-14T12:26:04;52.37;48.23;61.50;;
76339;Laerm;26644;50.248;19.032;2023-06-14T12:29:10;51.18;48.13;56.63;;
76339;Laerm;26644;50.248;19.032;2023-06-14T12:32:15;52.64;48.94;57.99;;
76339;Laerm;26644;50.248;19.032;2023-06-14T12:35:23;52.24;48.58;61.30;;
76339;Laerm;26644;50.248;19.032;2023-06-14T12:38:28;52.58;48.94;58.68;;
76339;Laerm;26644;50.248;19.032;2023-06-14T12:41:34;52.68;49.13;58.88;;
76339;Laerm;26644;50.248;19.032;2023-06-14T12:44:38;51.87;48.90;64.90;;
76339;Laerm;26644;50.248;19.032;2023-06-14T12:47:45;52.24;49.02;58.39;;
76339;Laerm;26644;50.248;19.032;2023-06-14T12:50:52;52.08;48.27;61.76;;
76339;Laerm;26644;50.248;19.032;2023-06-14T12:53:58;51.59;48.40;67.02;;
76339;Laerm;26644;50.248;19.032;2023-06-14T12:57:03;52.22;48.28;68.27;;
76339;Laerm;26644;50.248;19.032;2023-06-14T13:00:10;51.72;47.42;67.32;;
76339;Laerm;26644;50.248;19.032;2023-06-14T13:03:17;52.07;47.94;61.10;;
76339;Laerm;26644;50.248;19.032;2023-06-14T13:06:25;52.21;48.71;63.57;;
76339;Laerm;26644;50.248;19.032;2023-06-14T13:09:31;52.31;48.79;61.27;;
76339;Laerm;26644;50.248;19.032;2023-06-14T13:12:36;52.61;48.94;67.01;;
76339;Laerm;26644;50.248;19.032;2023-06-14T13:15:41;52.79;48.66;60.16;;
76339;Laerm;26644;50.248;19.032;2023-06-14T13:18:48;52.31;48.44;73.35;;
76339;Laerm;26644;50.248;19.032;2023-06-14T13:21:55;52.93;49.23;66.29;;
76339;Laerm;26644;50.248;19.032;2023-06-14T13:25:00;52.62;48.68;62.60;;
76339;Laerm;26644;50.248;19.032;2023-06-14T13:28:05;52.21;48.47;59.73;;
76339;Laerm;26644;50.248;19.032;2023-06-14T13:31:11;53.28;48.84;61.62;;
76339;Laerm;26644;50.248;19.032;2023-06-14T13:34:15;52.85;49.19;68.50;;
76339;Laerm;26644;50.248;19.032;2023-06-14T13:37:23;51.66;48.18;61.89;;
76339;Laerm;26644;50.248;19.032;2023-06-14T13:40:28;52.59;48.85;65.62;;
76339;Laerm;26644;50.248;19.032;2023-06-14T13:43:33;51.99;47.55;62.08;;
76339;Laerm;26644;50.248;19.032;2023-06-14T13:46:37;51.99;48.41;59.65;;
76339;Laerm;26644;50.248;19.032;2023-06-14T13:49:44;54.10;48.65;66.79;;
76339;Laerm;26644;50.248;19.032;2023-06-14T13:52:51;53.40;49.29;71.66;;
76339;Laerm;26644;50.248;19.032;2023-06-14T13:55:57;53.23;50.02;60.17;;
76339;Laerm;26644;50.248;19.032;2023-06-14T13:59:01;52.79;49.22;65.76;;
76339;Laerm;26644;50.248;19.032;2023-06-14T14:02:07;53.86;49.38;71.06;;
76339;Laerm;26644;50.248;19.032;2023-06-14T14:05:12;53.24;49.39;63.74;;
76339;Laerm;26644;50.248;19.032;2023-06-14T14:08:20;54.80;50.42;71.59;;
76339;Laerm;26644;50.248;19.032;2023-06-14T14:11:25;54.32;50.00;67.55;;
76339;Laerm;26644;50.248;19.032;2023-06-14T14:14:32;54.09;49.95;68.97;;
76339;Laerm;26644;50.248;19.032;2023-06-14T14:17:36;53.98;49.97;67.64;;
76339;Laerm;26644;50.248;19.032;2023-06-14T14:20:41;53.43;49.01;67.14;;
76339;Laerm;26644;50.248;19.032;2023-06-14T14:23:49;53.99;49.97;68.75;;
76339;Laerm;26644;50.248;19.032;2023-06-14T14:26:54;59.53;49.09;81.50;;
76339;Laerm;26644;50.248;19.032;2023-06-14T14:30:01;52.95;49.55;61.47;;
76339;Laerm;26644;50.248;19.032;2023-06-14T14:33:07;52.96;49.36;67.10;;
76339;Laerm;26644;50.248;19.032;2023-06-14T14:36:16;53.34;49.47;72.69;;
76339;Laerm;26644;50.248;19.032;2023-06-14T14:39:24;52.75;49.67;71.99;;
76339;Laerm;26644;50.248;19.032;2023-06-14T14:42:29;52.68;49.41;61.66;;
76339;Laerm;26644;50.248;19.032;2023-06-14T14:45:34;53.41;49.25;69.42;;
76339;Laerm;26644;50.248;19.032;2023-06-14T14:48:39;53.08;49.60;65.54;;
76339;Laerm;26644;50.248;19.032;2023-06-14T14:51:44;53.62;50.20;70.12;;
76339;Laerm;26644;50.248;19.032;2023-06-14T14:54:51;54.20;48.75;74.96;;
76339;Laerm;26644;50.248;19.032;2023-06-14T14:57:56;58.29;49.83;78.39;;
76339;Laerm;26644;50.248;19.032;2023-06-14T15:01:00;52.59;48.86;65.22;;
76339;Laerm;26644;50.248;19.032;2023-06-14T15:04:07;52.83;49.02;66.60;;
76339;Laerm;26644;50.248;19.032;2023-06-14T15:07:12;52.57;49.25;61.72;;
76339;Laerm;26644;50.248;19.032;2023-06-14T15:10:20;52.99;49.33;69.90;;
76339;Laerm;26644;50.248;19.032;2023-06-14T15:13:24;53.74;50.06;71.91;;
76339;Laerm;26644;50.248;19.032;2023-06-14T15:16:30;52.83;48.24;64.85;;
76339;Laerm;26644;50.248;19.032;2023-06-14T15:19:34;52.66;48.90;68.69;;
76339;Laerm;26644;50.248;19.032;2023-06-14T15:22:41;52.87;49.50;59.87;;
76339;Laerm;26644;50.248;19.032;2023-06-14T15:25:48;53.35;49.85;64.69;;
76339;Laerm;26644;50.248;19.032;2023-06-14T15:28:54;53.87;48.60;73.62;;
76339;Laerm;26644;50.248;19.032;2023-06-14T15:31:58;55.08;48.05;71.29;;
76339;Laerm;26644;50.248;19.032;2023-06-14T15:35:05;54.79;49.97;72.28;;
76339;Laerm;26644;50.248;19.032;2023-06-14T15:38:09;55.73;49.69;71.66;;
76339;Laerm;26644;50.248;19.032;2023-06-14T15:41:17;55.07;48.60;71.64;;
76339;Laerm;26644;50.248;19.032;2023-06-14T15:44:21;52.24;49.06;60.24;;
76339;Laerm;26644;50.248;19.032;2023-06-14T15:47:27;52.19;48.14;66.59;;
76339;Laerm;26644;50.248;19.032;2023-06-14T15:50:31;52.06;47.71;62.21;;
76339;Laerm;26644;50.248;19.032;2023-06-14T15:53:36;51.30;47.33;60.26;;
76339;Laerm;26644;50.248;19.032;2023-06-14T15:56:43;53.64;48.31;74.36;;
76339;Laerm;26644;50.248;19.032;2023-06-14T15:59:48;52.43;48.28;67.11;;
76339;Laerm;26644;50.248;19.032;2023-06-14T16:02:53;52.60;48.29;66.56;;
76339;Laerm;26644;50.248;19.032;2023-06-14T16:05:58;53.76;48.56;72.80;;
76339;Laerm;26644;50.248;19.032;2023-06-14T16:09:03;51.25;48.02;58.38;;
76339;Laerm;26644;50.248;19.032;2023-06-14T16:12:11;53.28;48.77;68.48;;
76339;Laerm;26644;50.248;19.032;2023-06-14T16:15:18;55.76;49.60;73.81;;
76339;Laerm;26644;50.248;19.032;2023-06-14T16:18:23;52.11;48.74;58.79;;
76339;Laerm;26644;50.248;19.032;2023-06-14T16:21:27;51.94;48.78;63.63;;
76339;Laerm;26644;50.248;19.032;2023-06-14T16:24:35;51.91;48.01;64.40;;
76339;Laerm;26644;50.248;19.032;2023-06-14T16:27:43;52.50;49.01;67.01;;
76339;Laerm;26644;50.248;19.032;2023-06-14T16:30:48;59.21;48.71;80.27;;
76339;Laerm;26644;50.248;19.032;2023-06-14T16:33:53;53.99;48.39;78.12;;
76339;Laerm;26644;50.248;19.032;2023-06-14T16:36:59;52.99;47.86;77.78;;
76339;Laerm;26644;50.248;19.032;2023-06-14T16:40:05;55.67;48.20;73.47;;
76339;Laerm;26644;50.248;19.032;2023-06-14T16:43:14;60.67;47.98;81.92;;
76339;Laerm;26644;50.248;19.032;2023-06-14T16:46:28;55.23;48.36;73.47;;
76339;Laerm;26644;50.248;19.032;2023-06-14T16:49:34;51.81;47.76;60.18;;
76339;Laerm;26644;50.248;19.032;2023-06-14T16:52:39;52.42;48.11;73.16;;
76339;Laerm;26644;50.248;19.032;2023-06-14T16:55:44;52.03;47.66;62.35;;
76339;Laerm;26644;50.248;19.032;2023-06-14T16:58:51;52.85;48.78;65.08;;
76339;Laerm;26644;50.248;19.032;2023-06-14T17:02:02;51.91;47.89;67.77;;
76339;Laerm;26644;50.248;19.032;2023-06-14T17:05:07;52.82;48.89;72.59;;
76339;Laerm;26644;50.248;19.032;2023-06-14T17:08:13;52.43;48.92;66.70;;
76339;Laerm;26644;50.248;19.032;2023-06-14T17:11:18;51.98;48.16;67.34;;